Hlavní strana
METAR-TAF:

METAR-TAF

Letiště :

Tupelo Regional Airport (C.D. Lemons Field)

Tupelo, Mississippi, Spojené státy americké

zeměpisná šířka: 34-16-05N, zeměpisná délka: 088-46-12W, výška: 106 m

Aktuální stav počasí

Zpráva byla vytvořena před 1 hodinou a 1 minutami, v 22:53 UTC
Jihojihovýchodní vítr 7 kt s nárazy do 16 kt
Teplota 12°C
Vlhkost vzduchu 50%
Tlak 1024 hPa
Viditelnost: 16.1 km
Zataženo ve výšce 3100 ft

METAR: KTUP 122253Z 15007G16KT 10SM OVC031 12/02 A3023 RMK AO2 SLP238 T01170022

Čas: 17:54 (23:54 UTC)

Předpověď počasí

Zpráva byla vytvořena před 3 hodinami a 3 minutami, v 20:51 UTC
Předpověď platná od 12 v 21 UTC do 13 v 18 UTC
Jižní vítr 8 kt
Viditelnost: 10 km
Oblačno až skoro zataženo ve výšce 3000 ft
Od 13 v 0600 UTC
Jižní vítr 7 kt
Viditelnost: 10 km
Zataženo ve výšce 1500 ft
Od 13 v 1000 UTC
Jižní vítr 6 kt
Viditelnost: 8.0 km
Zataženo ve výšce 800 ft
kouřmo

TAF: KTUP 122051Z 1221/1318 17008KT P6SM BKN030 FM130600 17007KT P6SM OVC015 FM131000 17006KT 5SM BR OVC008

Stav a předpovědi počasí z více než 4 000 letišť (zprávy METAR a TAF).

Červené a žluté tečky na mapě představují dostupné meteorologické stanice.

Když kurzor umístíte na tečku, zobrazí se název stanice.

Pak kliknutím zobrazíte stav a předpověď počasí.

Chcete-li změnit mapu, kliknutím na zelené tlačítko se znaménkem +mapu přiblížíte, kliknutím na zelené tlačítko se znaménkem – mapu oddálíte a kliknutím na zelené šipky přejdete na sousední mapy.


METAR-TAF: